Time;durP1;ratioP1;P1;durP2;ratioP2;P2;SDS_P1;SDS_P2;PMS_P1;PMS_P2;Temp;Humidity;BMP_temperature;BMP_pressure;BME280_temperature;BME280_humidity;BME280_pressure;Samples;Min_cycle;Max_cycle;Signal;HPM_P1;HPM_P2
2021/05/07 00:02:10;;;;;;;6.20;2.70;;;4.30;99.90;3.40;95917.00;;;;5103171;28;20460;-54
2021/05/07 00:04:58;;;;;;;2.57;2.37;;;4.30;99.90;3.50;95919.00;;;;5096704;28;20511;-55
2021/05/07 00:07:49;;;;;;;5.37;3.90;;;4.30;99.90;3.60;95918.00;;;;5086687;28;20448;-55
2021/05/07 00:10:36;;;;;;;4.60;2.73;;;4.40;99.90;3.50;95916.00;;;;5088221;28;20421;-52
2021/05/07 00:13:26;;;;;;;6.30;2.97;;;4.40;99.90;3.70;95907.00;;;;5086737;28;20434;-54
2021/05/07 00:16:14;;;;;;;4.50;3.00;;;4.50;99.90;3.80;95909.00;;;;5087083;28;20429;-55
2021/05/07 00:19:05;;;;;;;3.30;3.00;;;4.50;99.90;3.90;95901.00;;;;5087154;28;20430;-54
2021/05/07 00:21:58;;;;;;;4.63;2.90;;;4.60;99.90;3.80;95910.00;;;;5086875;28;21001;-53
2021/05/07 00:24:46;;;;;;;4.33;3.77;;;4.60;99.90;3.50;95903.00;;;;5086585;28;20473;-56
2021/05/07 00:27:33;;;;;;;3.83;3.27;;;4.60;99.90;3.60;95912.00;;;;5100954;28;20956;-53
2021/05/07 00:30:22;;;;;;;9.30;3.03;;;4.50;99.90;3.50;95893.00;;;;5086235;28;20440;-55
2021/05/07 00:33:11;;;;;;;6.07;3.67;;;4.40;99.90;3.70;95906.00;;;;5099472;28;20754;-52
2021/05/07 00:35:58;;;;;;;4.90;3.17;;;4.50;99.90;3.80;95898.00;;;;5098049;28;20433;-52
2021/05/07 00:38:46;;;;;;;3.37;2.77;;;4.50;99.90;3.80;95902.00;;;;5087205;28;20567;-53
2021/05/07 00:41:34;;;;;;;6.80;3.63;;;4.60;99.90;3.80;95898.00;;;;5086221;28;20980;-55
2021/05/07 00:44:22;;;;;;;4.70;3.43;;;4.60;99.90;3.90;95890.00;;;;5086621;28;20839;-55
2021/05/07 00:47:11;;;;;;;3.20;2.90;;;4.70;99.90;3.90;95884.00;;;;5087696;28;20429;-58
2021/05/07 00:49:59;;;;;;;3.60;3.00;;;4.70;99.90;4.00;95898.00;;;;5086364;28;20426;-53
2021/05/07 00:52:47;;;;;;;4.10;3.63;;;4.70;99.90;4.10;95892.00;;;;5085775;28;20995;-55
2021/05/07 00:55:38;;;;;;;5.70;3.73;;;4.80;99.90;4.10;95884.00;;;;5096266;28;20421;-56
2021/05/07 00:58:26;;;;;;;5.63;3.77;;;4.90;99.90;4.10;95893.00;;;;5098979;28;20438;-54
2021/05/07 01:01:14;;;;;;;5.20;3.80;;;4.90;99.90;4.00;95887.00;;;;5086586;28;20450;-55
2021/05/07 01:04:03;;;;;;;4.27;3.23;;;4.90;99.90;4.30;95885.00;;;;5085032;28;20499;-54
2021/05/07 01:06:51;;;;;;;6.47;2.97;;;5.00;99.90;4.40;95883.00;;;;5085969;28;20859;-57
2021/05/07 01:09:39;;;;;;;3.27;2.37;;;5.10;99.90;4.40;95883.00;;;;5087024;28;20444;-55
2021/05/07 01:12:28;;;;;;;3.63;3.07;;;5.10;99.90;4.50;95874.00;;;;5086378;28;20446;-55
2021/05/07 01:15:20;;;;;;;5.10;3.57;;;5.20;99.90;4.40;95865.00;;;;5096688;28;20428;-56
2021/05/07 01:18:08;;;;;;;3.93;3.43;;;5.30;99.90;4.30;95872.00;;;;5099731;28;20433;-56
2021/05/07 01:20:57;;;;;;;5.37;3.43;;;5.20;99.90;4.30;95879.00;;;;5086168;28;20831;-57
2021/05/07 01:23:45;;;;;;;3.73;2.53;;;5.20;99.90;4.50;95882.00;;;;5085806;28;20847;-55
2021/05/07 01:26:34;;;;;;;3.80;3.20;;;5.30;99.90;4.60;95891.00;;;;5086852;28;20808;-54
2021/05/07 01:29:23;;;;;;;2.97;2.67;;;5.30;99.90;4.80;95886.00;;;;5085529;28;20418;-56
2021/05/07 01:32:10;;;;;;;4.23;2.87;;;5.40;99.90;4.90;95897.00;;;;5083834;28;20457;-54
2021/05/07 01:34:58;;;;;;;6.53;2.97;;;5.50;99.90;5.00;95900.00;;;;5084527;28;20823;-56
2021/05/07 01:37:50;;;;;;;2.93;2.63;;;5.60;99.90;5.00;95900.00;;;;5084831;28;21046;-57
2021/05/07 01:40:41;;;;;;;3.90;2.67;;;5.70;99.90;5.10;95902.00;;;;5084318;28;20445;-59
2021/05/07 01:43:32;;;;;;;7.70;2.80;;;5.70;99.90;5.20;95906.00;;;;5083804;28;20207;-57
2021/05/07 01:46:19;;;;;;;4.43;2.43;;;5.80;99.90;5.30;95913.00;;;;5084313;28;20199;-53
2021/05/07 01:49:07;;;;;;;5.90;2.53;;;5.90;99.90;5.30;95907.00;;;;5085626;28;20203;-54
2021/05/07 01:51:55;;;;;;;5.80;3.00;;;5.90;99.90;5.30;95902.00;;;;5084921;28;20222;-55
2021/05/07 01:54:44;;;;;;;2.53;2.33;;;6.00;99.90;5.20;95905.00;;;;5085649;28;20211;-55
2021/05/07 01:57:33;;;;;;;4.27;3.47;;;6.00;99.90;5.20;95912.00;;;;5085303;28;20214;-55
2021/05/07 02:00:24;;;;;;;5.67;3.03;;;6.00;99.90;4.90;95923.00;;;;5084710;28;20207;-55
2021/05/07 02:03:13;;;;;;;3.57;2.93;;;5.90;99.90;5.10;95932.00;;;;5090979;28;20219;-57
2021/05/07 02:06:01;;;;;;;4.77;2.90;;;5.90;99.90;5.10;95927.00;;;;5085039;28;20204;-57
2021/05/07 02:08:48;;;;;;;5.33;3.37;;;5.90;99.90;5.20;95921.00;;;;5085127;28;20203;-58
2021/05/07 02:11:37;;;;;;;6.00;3.20;;;6.00;99.90;5.30;95934.00;;;;5084933;28;20223;-54
2021/05/07 02:14:25;;;;;;;3.53;2.77;;;6.00;99.90;5.30;95929.00;;;;5082805;28;20207;-56
2021/05/07 02:17:13;;;;;;;3.03;2.57;;;6.00;99.90;5.40;95916.00;;;;5083328;28;20224;-56
2021/05/07 02:20:01;;;;;;;3.70;2.77;;;6.00;99.90;5.50;95914.00;;;;5084473;28;20199;-54
2021/05/07 02:22:50;;;;;;;2.57;2.37;;;6.10;99.90;5.50;95908.00;;;;5083880;28;20756;-51
2021/05/07 02:25:38;;;;;;;5.10;3.10;;;6.20;99.90;5.60;95912.00;;;;5097769;28;20226;-54
2021/05/07 02:28:27;;;;;;;5.40;3.27;;;6.20;99.90;5.70;95913.00;;;;5098443;28;20207;-52
2021/05/07 02:31:14;;;;;;;5.17;2.90;;;6.30;99.90;5.90;95907.00;;;;5095272;28;20215;-52
2021/05/07 02:34:03;;;;;;;4.57;3.90;;;6.40;99.90;6.00;95898.00;;;;5084330;28;20650;-54
2021/05/07 02:36:51;;;;;;;3.43;3.13;;;6.50;99.90;6.10;95896.00;;;;5085444;28;20208;-56
2021/05/07 02:39:39;;;;;;;7.57;3.13;;;6.60;99.90;6.20;95892.00;;;;5085400;28;20200;-55
2021/05/07 02:42:26;;;;;;;5.47;2.20;;;6.70;99.90;6.30;95881.00;;;;5084641;28;20218;-55
2021/05/07 02:45:16;;;;;;;5.17;3.60;;;6.80;99.90;6.30;95884.00;;;;5086863;28;20697;-53
2021/05/07 02:48:05;;;;;;;6.37;3.13;;;6.90;99.90;6.10;95885.00;;;;5089083;28;20203;-55
2021/05/07 02:50:53;;;;;;;4.07;3.50;;;6.90;99.90;5.80;95893.00;;;;5088736;28;20201;-56
2021/05/07 02:53:41;;;;;;;3.47;2.77;;;6.90;99.90;5.80;95890.00;;;;5087304;28;20202;-54
2021/05/07 02:56:29;;;;;;;5.27;3.13;;;6.80;99.90;5.90;95902.00;;;;5087693;28;20214;-50
2021/05/07 02:59:17;;;;;;;3.73;3.30;;;6.80;99.90;6.00;95910.00;;;;5089529;28;20674;-56
2021/05/07 03:02:06;;;;;;;3.37;2.60;;;6.70;99.90;5.90;95894.00;;;;5092287;28;20219;-54
2021/05/07 03:04:53;;;;;;;7.33;3.43;;;6.80;99.90;5.80;95895.00;;;;5088076;28;20242;-55
2021/05/07 03:07:41;;;;;;;3.90;2.97;;;6.70;99.90;5.80;95892.00;;;;5089191;28;20608;-50
2021/05/07 03:10:29;;;;;;;3.80;2.63;;;6.70;99.90;5.90;95885.00;;;;5088244;28;20204;-53
2021/05/07 03:13:17;;;;;;;4.00;3.20;;;6.70;99.90;5.90;95906.00;;;;5088123;28;20241;-55
2021/05/07 03:16:05;;;;;;;5.13;3.63;;;6.60;99.90;5.90;95912.00;;;;5087817;28;20211;-52
2021/05/07 03:18:54;;;;;;;4.30;3.13;;;6.70;99.90;5.90;95916.00;;;;5087739;28;20211;-53
2021/05/07 03:21:42;;;;;;;4.83;3.37;;;6.70;99.90;5.60;95922.00;;;;5089144;28;20246;-54
2021/05/07 03:24:30;;;;;;;6.43;3.17;;;6.60;99.90;5.60;95910.00;;;;5086950;28;20231;-55
2021/05/07 03:27:19;;;;;;;6.40;3.93;;;6.60;99.90;5.60;95926.00;;;;5089019;28;20196;-57
2021/05/07 03:30:11;;;;;;;3.73;3.17;;;6.50;99.90;5.70;95941.00;;;;5089590;28;20599;-57
2021/05/07 03:33:00;;;;;;;3.27;2.97;;;6.50;99.90;5.70;95933.00;;;;5087968;28;20219;-54
2021/05/07 03:35:49;;;;;;;5.33;3.13;;;6.50;99.90;5.70;95938.00;;;;5087218;28;20215;-55
2021/05/07 03:38:36;;;;;;;3.70;3.30;;;6.50;99.90;5.70;95924.00;;;;5089079;28;21049;-56
2021/05/07 03:41:25;;;;;;;4.53;3.43;;;6.50;99.90;5.70;95936.00;;;;5087617;28;20725;-55
2021/05/07 03:44:13;;;;;;;3.90;2.67;;;6.50;99.90;5.70;95933.00;;;;5087520;28;20230;-56
2021/05/07 03:47:01;;;;;;;3.07;2.70;;;6.50;99.90;5.70;95938.00;;;;5101328;28;20673;-54
2021/05/07 03:49:49;;;;;;;7.07;3.07;;;6.50;99.90;5.70;95938.00;;;;5087260;28;20199;-56
2021/05/07 03:52:40;;;;;;;5.07;3.53;;;6.50;99.90;5.70;95935.00;;;;5088197;28;20616;-56
2021/05/07 03:55:28;;;;;;;4.60;3.20;;;6.50;99.90;5.80;95951.00;;;;5085507;28;20218;-52
2021/05/07 03:58:16;;;;;;;3.30;3.00;;;6.50;99.90;5.70;95948.00;;;;5088208;28;20207;-54
2021/05/07 04:01:07;;;;;;;4.87;3.27;;;6.50;99.90;5.60;95943.00;;;;5086709;28;20200;-52
2021/05/07 04:03:55;;;;;;;9.00;4.47;;;6.50;99.90;5.60;95970.00;;;;5093498;28;20704;-53
2021/05/07 04:06:42;;;;;;;5.10;3.53;;;6.50;99.90;5.80;95964.00;;;;5088281;28;20612;-55
2021/05/07 04:09:34;;;;;;;5.10;3.07;;;6.50;99.90;5.80;95960.00;;;;5101080;28;20203;-53
2021/05/07 04:12:31;;;;;;;5.10;3.67;;;6.60;99.90;5.80;95984.00;;;;5101852;28;20215;-55
2021/05/07 04:15:18;;;;;;;3.80;3.43;;;6.60;99.90;5.90;95982.00;;;;5088082;28;20214;-57
2021/05/07 04:18:06;;;;;;;3.77;3.37;;;6.60;99.90;5.80;95972.00;;;;5088892;28;20234;-50
2021/05/07 04:20:54;;;;;;;3.97;3.37;;;6.60;99.90;5.90;95987.00;;;;5087064;28;20583;-54
2021/05/07 04:23:42;;;;;;;5.33;3.13;;;6.70;99.90;5.80;95987.00;;;;5085988;28;20215;-51
2021/05/07 04:26:31;;;;;;;6.73;3.47;;;6.70;99.90;5.70;95980.00;;;;5097590;28;20203;-53
2021/05/07 04:29:19;;;;;;;8.13;3.90;;;6.60;99.90;5.70;95984.00;;;;5099834;28;20226;-55
2021/05/07 04:32:07;;;;;;;6.30;3.83;;;6.60;99.90;5.90;95989.00;;;;5087895;28;20242;-55
2021/05/07 04:34:55;;;;;;;5.17;4.37;;;6.60;99.90;5.90;95990.00;;;;5086664;28;20623;-54
2021/05/07 04:37:43;;;;;;;3.93;3.33;;;6.60;99.90;5.70;95990.00;;;;5096684;28;20585;-56
2021/05/07 04:40:32;;;;;;;8.27;3.37;;;6.60;99.90;5.80;95985.00;;;;5106841;28;20202;-56
2021/05/07 04:43:20;;;;;;;5.00;3.20;;;6.60;99.90;5.70;95984.00;;;;5091145;28;20192;-54
2021/05/07 04:46:08;;;;;;;3.57;3.10;;;6.60;99.90;5.70;95989.00;;;;5086827;28;20239;-56
2021/05/07 04:48:56;;;;;;;6.57;3.93;;;6.60;99.90;5.80;95995.00;;;;5103025;27;20209;-53
2021/05/07 04:51:44;;;;;;;5.83;3.87;;;6.60;99.90;5.80;96000.00;;;;5107280;27;20221;-54
2021/05/07 04:54:33;;;;;;;4.70;3.47;;;6.60;99.90;5.80;96001.00;;;;5091461;28;20199;-58
2021/05/07 04:57:21;;;;;;;5.50;3.50;;;6.60;99.90;5.90;96009.00;;;;5087159;28;20199;-55
2021/05/07 05:00:12;;;;;;;4.33;3.53;;;6.70;99.90;6.00;96016.00;;;;5087353;28;20211;-52
2021/05/07 05:02:59;;;;;;;7.40;3.87;;;6.70;99.90;6.00;96020.00;;;;5095842;28;20231;-57
2021/05/07 05:05:47;;;;;;;5.33;3.30;;;6.70;99.90;6.20;96017.00;;;;5086664;28;20727;-56
2021/05/07 05:08:35;;;;;;;5.03;4.10;;;6.80;99.90;6.30;96011.00;;;;5086379;28;20203;-52
2021/05/07 05:11:23;;;;;;;6.57;4.00;;;5.70;99.90;6.40;96010.00;;;;5087850;28;20231;-56
2021/05/07 05:14:10;;;;;;;3.67;3.30;;;6.90;99.90;6.50;96017.00;;;;5086619;28;20191;-55
2021/05/07 05:16:59;;;;;;;5.63;3.30;;;7.10;99.90;6.60;96034.00;;;;5084563;28;20231;-56
2021/05/07 05:19:47;;;;;;;4.40;3.37;;;7.20;99.90;6.60;96030.00;;;;5088151;28;20202;-56
2021/05/07 05:22:35;;;;;;;8.23;4.67;;;7.20;99.90;6.60;96026.00;;;;5086041;28;20329;-56
2021/05/07 05:25:23;;;;;;;9.23;5.13;;;7.30;99.90;6.60;96028.00;;;;5086769;28;20710;-55
2021/05/07 05:28:11;;;;;;;4.90;3.53;;;7.30;99.90;6.50;96027.00;;;;5087507;28;20199;-51
2021/05/07 05:30:59;;;;;;;4.10;3.47;;;7.30;99.90;6.40;96034.00;;;;5095538;28;20211;-55
2021/05/07 05:33:47;;;;;;;6.00;4.77;;;7.30;99.90;6.40;96043.00;;;;5085616;28;20734;-55
2021/05/07 05:36:35;;;;;;;4.57;4.10;;;7.20;99.90;6.50;96050.00;;;;5085855;28;20731;-55
2021/05/07 05:39:23;;;;;;;4.47;3.50;;;7.30;99.90;6.60;96057.00;;;;5085915;28;20211;-57
2021/05/07 05:42:11;;;;;;;6.27;4.60;;;7.30;99.90;6.70;96058.00;;;;5091437;28;20222;-57
2021/05/07 05:44:59;;;;;;;5.63;4.53;;;7.30;99.90;6.70;96059.00;;;;5093410;28;20226;-57
2021/05/07 05:47:47;;;;;;;5.33;4.27;;;7.40;99.90;6.60;96047.00;;;;5093247;28;20198;-57
2021/05/07 05:50:36;;;;;;;5.47;4.23;;;7.40;99.90;6.60;96044.00;;;;5094726;28;20208;-56
2021/05/07 05:53:23;;;;;;;8.13;3.83;;;7.40;99.90;6.70;96040.00;;;;5091033;28;20209;-55
2021/05/07 05:56:13;;;;;;;4.17;3.77;;;7.40;99.90;6.70;96031.00;;;;5091419;28;20191;-55
2021/05/07 05:59:01;;;;;;;9.47;4.97;;;7.40;99.90;6.80;96023.00;;;;5092718;28;20199;-57
2021/05/07 06:01:49;;;;;;;4.60;4.13;;;7.50;99.90;6.90;96041.00;;;;5095697;28;20360;-53
2021/05/07 06:04:37;;;;;;;8.17;4.30;;;7.50;99.90;6.90;96035.00;;;;5092004;28;20222;-56
2021/05/07 06:07:25;;;;;;;4.67;4.23;;;7.60;99.90;7.00;96025.00;;;;5092251;28;20196;-57
2021/05/07 06:10:16;;;;;;;6.57;3.87;;;7.60;99.90;6.90;96046.00;;;;5095117;28;20651;-57
2021/05/07 06:13:04;;;;;;;5.97;4.37;;;7.60;99.90;7.00;96055.00;;;;5093670;28;20233;-56
2021/05/07 06:15:52;;;;;;;9.37;4.40;;;7.70;99.90;7.00;96036.00;;;;5090885;28;20233;-57
2021/05/07 06:18:40;;;;;;;7.33;4.00;;;7.70;99.90;7.00;96028.00;;;;5093823;28;20194;-56
2021/05/07 06:21:27;;;;;;;6.93;4.43;;;7.70;99.90;7.10;96046.00;;;;5098766;28;20226;-55
2021/05/07 06:24:16;;;;;;;4.87;4.17;;;7.70;99.90;7.00;96039.00;;;;5094981;28;20205;-57
2021/05/07 06:27:04;;;;;;;6.63;4.70;;;7.70;99.90;7.10;96039.00;;;;5096041;28;20199;-57
2021/05/07 06:29:52;;;;;;;6.33;4.03;;;7.80;99.90;7.30;96046.00;;;;5097557;28;20202;-57
2021/05/07 06:32:41;;;;;;;5.03;4.07;;;7.80;99.90;7.40;96045.00;;;;5095349;28;20214;-57
2021/05/07 06:35:28;;;;;;;5.93;4.40;;;7.90;99.90;7.50;96036.00;;;;5104663;28;20209;-57
2021/05/07 06:38:16;;;;;;;7.37;4.50;;;8.00;99.90;7.60;96037.00;;;;5110052;28;20209;-57
2021/05/07 06:41:05;;;;;;;11.47;5.60;;;8.10;99.90;7.70;96046.00;;;;5106569;28;20524;-56
2021/05/07 06:43:53;;;;;;;6.13;5.00;;;8.20;99.90;7.80;96023.00;;;;5095954;28;20557;-58
2021/05/07 06:46:40;;;;;;;7.00;4.63;;;8.30;99.90;7.90;96029.00;;;;5108041;28;20199;-56
2021/05/07 06:49:29;;;;;;;7.33;4.57;;;8.40;99.90;8.10;96005.00;;;;5107809;28;20203;-57
2021/05/07 06:52:17;;;;;;;5.80;4.63;;;8.50;99.90;8.30;95997.00;;;;5107576;28;20693;-56
2021/05/07 06:55:07;;;;;;;8.30;6.13;;;8.60;99.90;8.50;96019.00;;;;5106194;28;20210;-58
2021/05/07 06:57:56;;;;;;;6.50;5.60;;;8.80;99.90;8.60;96018.00;;;;5107384;28;20229;-56
2021/05/07 07:00:43;;;;;;;5.97;4.47;;;9.00;99.90;8.70;96021.00;;;;5106564;28;20209;-57
2021/05/07 07:03:31;;;;;;;6.10;4.63;;;9.10;99.90;8.60;96027.00;;;;5103334;28;20190;-57
2021/05/07 07:06:19;;;;;;;5.97;4.80;;;9.20;99.90;8.60;96018.00;;;;5102581;28;20237;-56
2021/05/07 07:09:07;;;;;;;7.13;4.97;;;9.20;99.90;8.70;96009.00;;;;5104693;28;20203;-57
2021/05/07 07:12:13;;;;;;;6.53;4.43;;;9.20;99.90;8.80;96015.00;;;;5102102;27;20238;-58
2021/05/07 07:15:03;;;;;;;4.83;3.77;;;9.30;99.90;8.80;96014.00;;;;5100086;28;20198;-56
2021/05/07 07:17:51;;;;;;;5.50;4.43;;;9.40;99.90;8.80;96012.00;;;;5102367;28;20212;-57
2021/05/07 07:20:38;;;;;;;4.97;4.20;;;9.40;99.90;8.70;96004.00;;;;5094043;28;20728;-55
2021/05/07 07:23:26;;;;;;;6.87;4.93;;;9.40;99.90;8.70;96008.00;;;;5102579;28;20213;-56
2021/05/07 07:26:14;;;;;;;6.80;4.57;;;9.40;99.90;8.70;96011.00;;;;5101853;28;20222;-57
2021/05/07 07:29:02;;;;;;;5.60;5.00;;;9.40;99.90;8.60;96017.00;;;;5103108;28;20195;-57
2021/05/07 07:31:52;;;;;;;7.60;4.57;;;9.40;99.90;8.60;96019.00;;;;5104857;28;20222;-56
2021/05/07 07:34:40;;;;;;;7.07;4.63;;;9.40;99.90;8.70;96019.00;;;;5103362;28;20236;-57
2021/05/07 07:37:28;;;;;;;5.73;3.07;;;9.30;99.90;8.60;96015.00;;;;5101685;28;20211;-57
2021/05/07 07:40:17;;;;;;;5.77;4.03;;;9.40;99.90;9.00;96011.00;;;;5098154;28;20203;-57
2021/05/07 07:43:05;;;;;;;5.87;4.30;;;9.40;99.90;9.20;96017.00;;;;5102675;28;20218;-57
2021/05/07 07:45:53;;;;;;;5.07;4.23;;;9.50;99.90;9.30;96028.00;;;;5106235;28;20226;-57
2021/05/07 07:48:42;;;;;;;5.47;4.77;;;9.70;99.90;9.60;96014.00;;;;5103172;28;20206;-57
2021/05/07 07:51:31;;;;;;;6.90;5.03;;;9.80;99.90;9.60;96031.00;;;;5103415;28;20244;-55
2021/05/07 07:54:19;;;;;;;5.70;4.93;;;9.90;99.90;9.70;96023.00;;;;5094597;28;20199;-57
2021/05/07 07:57:07;;;;;;;6.87;5.03;;;10.00;99.90;9.70;96021.00;;;;5093183;27;20210;-57
2021/05/07 07:59:56;;;;;;;5.33;4.40;;;10.10;99.90;9.30;96028.00;;;;5103185;28;20198;-58
2021/05/07 08:02:45;;;;;;;5.27;4.47;;;10.10;99.90;9.40;96025.00;;;;5103641;28;20230;-57
2021/05/07 08:05:36;;;;;;;10.50;4.07;;;10.10;99.90;9.30;96019.00;;;;5104616;28;20218;-57
2021/05/07 08:08:24;;;;;;;5.20;4.70;;;10.10;99.90;9.40;96015.00;;;;5104563;28;20666;-56
2021/05/07 08:11:12;;;;;;;5.60;3.17;;;10.00;99.90;9.20;96033.00;;;;5098585;28;20470;-55
2021/05/07 08:14:00;;;;;;;4.67;4.10;;;9.90;99.90;9.20;96024.00;;;;5102168;28;20218;-53
2021/05/07 08:16:48;;;;;;;7.50;4.47;;;9.90;99.90;9.20;96034.00;;;;5105422;28;20202;-56
2021/05/07 08:19:36;;;;;;;4.90;4.40;;;9.90;99.90;9.20;96041.00;;;;5105871;28;20194;-58
2021/05/07 08:22:25;;;;;;;4.70;4.07;;;9.80;99.90;9.10;96032.00;;;;5101663;27;20218;-59
2021/05/07 08:25:14;;;;;;;7.70;4.83;;;9.80;99.90;9.00;96035.00;;;;5104443;28;20594;-57
2021/05/07 08:28:02;;;;;;;8.13;4.93;;;9.70;99.90;8.90;96036.00;;;;5106697;28;20194;-57
2021/05/07 08:30:50;;;;;;;5.77;4.10;;;9.70;99.90;9.00;96051.00;;;;5098354;28;20211;-56
2021/05/07 08:33:38;;;;;;;8.07;4.27;;;9.60;99.90;9.00;96044.00;;;;5089212;28;20587;-55
2021/05/07 08:36:26;;;;;;;6.33;4.53;;;9.60;99.90;8.90;96059.00;;;;5090960;28;20580;-57
2021/05/07 08:39:15;;;;;;;4.17;3.77;;;9.60;99.90;8.80;96068.00;;;;5096586;28;20214;-58
2021/05/07 08:42:05;;;;;;;5.63;4.23;;;9.50;99.90;8.90;96061.00;;;;5084094;28;20223;-56
2021/05/07 08:44:52;;;;;;;6.23;3.80;;;9.50;99.90;9.00;96068.00;;;;5086230;28;20218;-56
2021/05/07 08:47:40;;;;;;;10.40;4.60;;;9.50;99.90;9.00;96072.00;;;;5085555;28;20203;-56
2021/05/07 08:50:28;;;;;;;6.70;4.73;;;9.60;99.90;9.00;96079.00;;;;5092965;28;20206;-57
2021/05/07 08:53:17;;;;;;;4.43;3.83;;;9.60;99.90;9.00;96071.00;;;;5103816;28;20214;-56
2021/05/07 08:56:07;;;;;;;4.07;3.67;;;9.60;99.90;9.00;96065.00;;;;5091121;28;20211;-51
2021/05/07 08:58:55;;;;;;;4.20;3.00;;;9.60;99.90;9.00;96054.00;;;;5096652;28;20206;-54
2021/05/07 09:01:47;;;;;;;4.97;2.90;;;9.60;99.90;9.20;96040.00;;;;5092754;28;20222;-53
2021/05/07 09:04:35;;;;;;;4.30;3.30;;;9.70;99.90;9.20;96045.00;;;;5094842;28;20235;-55
2021/05/07 09:07:23;;;;;;;11.13;5.40;;;9.70;99.90;9.10;96054.00;;;;5086262;28;20199;-57
2021/05/07 09:10:13;;;;;;;8.87;5.40;;;9.70;99.90;9.00;96062.00;;;;5096007;28;20202;-51
2021/05/07 09:13:03;;;;;;;7.07;5.83;;;9.70;99.90;9.10;96063.00;;;;5105573;28;20223;-54
2021/05/07 09:15:51;;;;;;;7.53;5.57;;;9.70;99.90;9.10;96069.00;;;;5104448;28;20383;-54
2021/05/07 09:18:42;;;;;;;5.67;4.63;;;9.70;99.90;9.30;96059.00;;;;5105215;28;20195;-55
2021/05/07 09:21:30;;;;;;;9.27;5.53;;;9.70;99.90;9.40;96063.00;;;;5096732;28;20223;-54
2021/05/07 09:24:18;;;;;;;5.30;4.80;;;9.80;99.90;9.40;96073.00;;;;5099740;28;20209;-51
2021/05/07 09:27:07;;;;;;;4.50;4.10;;;9.90;99.90;9.30;96071.00;;;;5099622;28;20696;-52
2021/05/07 09:29:56;;;;;;;4.27;3.87;;;9.90;99.90;9.20;96067.00;;;;5104343;28;20560;-53
2021/05/07 09:32:50;;;;;;;6.73;4.63;;;9.90;99.90;9.00;96046.00;;;;5097111;28;20695;-52
2021/05/07 09:35:40;;;;;;;9.50;4.30;;;9.80;99.90;8.90;96057.00;;;;5098430;28;20703;-53
2021/05/07 09:38:33;;;;;;;5.00;4.50;;;9.70;99.90;8.90;96055.00;;;;5100630;28;20213;-54
2021/05/07 09:41:21;;;;;;;4.60;4.17;;;9.70;99.90;9.00;96077.00;;;;5085255;28;20238;-55
2021/05/07 09:44:21;;;;;;;4.20;3.80;;;9.70;99.90;8.90;96072.00;;;;5090745;28;20230;-56
2021/05/07 09:47:15;;;;;;;4.60;4.13;;;9.60;99.90;9.00;96067.00;;;;5091948;28;20231;-54
2021/05/07 09:50:05;;;;;;;5.50;3.80;;;9.60;99.90;9.10;96065.00;;;;5094630;28;20206;-56
2021/05/07 09:52:53;;;;;;;6.87;4.80;;;9.60;99.90;9.20;96069.00;;;;5091267;28;20620;-52
2021/05/07 09:55:43;;;;;;;3.93;3.47;;;9.70;99.90;9.20;96090.00;;;;5088178;28;20209;-58
2021/05/07 09:58:31;;;;;;;4.07;2.90;;;9.80;99.90;9.10;96088.00;;;;5095696;28;20210;-56
2021/05/07 10:01:19;;;;;;;2.90;2.60;;;9.70;99.90;9.20;96090.00;;;;5092239;28;20224;-57
2021/05/07 10:04:08;;;;;;;3.17;2.40;;;9.70;99.90;9.20;96089.00;;;;5098757;28;20195;-56
2021/05/07 10:06:56;;;;;;;2.87;2.57;;;9.80;99.90;9.20;96097.00;;;;5090674;28;20248;-52
2021/05/07 10:09:44;;;;;;;3.07;2.40;;;9.80;99.90;9.20;96089.00;;;;5091477;28;20557;-56
2021/05/07 10:12:34;;;;;;;1.87;1.70;;;9.80;99.90;9.30;96099.00;;;;5094210;28;20701;-54
2021/05/07 10:15:33;;;;;;;3.70;2.80;;;9.80;99.90;9.40;96081.00;;;;5093408;28;20209;-56
2021/05/07 10:18:25;;;;;;;4.80;4.30;;;9.90;99.90;9.40;96079.00;;;;5102266;28;20207;-55
2021/05/07 10:21:14;;;;;;;2.00;1.73;;;10.00;99.90;9.40;96090.00;;;;5103084;28;20198;-55
2021/05/07 10:24:02;;;;;;;1.87;1.70;;;9.90;99.90;9.40;96098.00;;;;5098890;28;20206;-57
2021/05/07 10:26:54;;;;;;;2.30;2.10;;;10.00;99.90;9.10;96094.00;;;;5103551;28;20234;-56
2021/05/07 10:29:56;;;;;;;2.30;2.10;;;9.90;99.90;9.30;96101.00;;;;5092100;28;20231;-58
2021/05/07 10:33:01;;;;;;;2.67;2.43;;;9.90;99.90;9.40;96111.00;;;;5100628;28;20596;-57
2021/05/07 10:35:56;;;;;;;3.00;2.70;;;10.00;99.90;9.40;96109.00;;;;5099011;28;20607;-56
2021/05/07 10:38:49;;;;;;;3.23;2.60;;;10.00;99.90;9.20;96087.00;;;;5096947;28;20199;-57
2021/05/07 10:41:36;;;;;;;5.90;2.97;;;9.90;99.90;9.20;96107.00;;;;5102872;28;20219;-56
2021/05/07 10:44:27;;;;;;;3.67;2.93;;;9.90;99.90;9.40;96108.00;;;;5099567;28;20211;-56
2021/05/07 10:47:15;;;;;;;5.00;2.97;;;9.90;99.90;9.50;96112.00;;;;5102286;28;20237;-57
2021/05/07 10:50:14;;;;;;;4.73;2.43;;;9.90;99.90;9.60;96086.00;;;;5103986;28;20571;-57
2021/05/07 10:53:01;;;;;;;2.90;2.53;;;10.00;99.90;9.80;96086.00;;;;5102256;28;20223;-56
2021/05/07 10:55:51;;;;;;;3.93;2.87;;;10.20;99.90;9.90;96097.00;;;;5103433;28;20206;-57
2021/05/07 10:58:42;;;;;;;7.03;3.20;;;10.30;99.90;9.50;96115.00;;;;5099203;28;20256;-57
2021/05/07 11:01:31;;;;;;;2.77;2.53;;;10.30;99.90;9.50;96108.00;;;;5105152;28;20248;-57
2021/05/07 11:04:18;;;;;;;5.17;3.40;;;10.20;99.90;9.60;96101.00;;;;5101443;28;20563;-56
2021/05/07 11:07:06;;;;;;;3.40;3.03;;;10.20;99.90;9.60;96117.00;;;;5104234;28;20218;-57
2021/05/07 11:10:01;;;;;;;25.53;16.83;;;10.20;99.90;9.40;96129.00;;;;5107079;28;20222;-56
2021/05/07 11:12:50;;;;;;;8.93;7.37;;;10.20;99.90;9.30;96125.00;;;;5104521;28;20222;-57
2021/05/07 11:15:38;;;;;;;7.47;5.37;;;10.20;99.90;9.50;96116.00;;;;5105252;28;20210;-59
2021/05/07 11:18:32;;;;;;;3.43;2.80;;;10.10;99.90;9.70;96115.00;;;;5107701;28;20681;-55
2021/05/07 11:21:20;;;;;;;3.40;2.23;;;10.20;99.90;9.70;96125.00;;;;5097126;28;20246;-54
2021/05/07 11:24:17;;;;;;;4.63;2.53;;;10.20;99.90;9.60;96122.00;;;;5093738;28;20657;-57
2021/05/07 11:27:19;;;;;;;3.83;2.70;;;10.30;99.90;9.60;96132.00;;;;5092973;28;20443;-57
2021/05/07 11:30:13;;;;;;;4.03;2.07;;;10.20;99.90;9.50;96136.00;;;;5089193;28;20583;-54
2021/05/07 11:33:08;;;;;;;3.90;2.50;;;10.20;99.90;9.40;96132.00;;;;5088603;28;20230;-55
2021/05/07 11:36:05;;;;;;;4.47;2.63;;;10.20;99.90;9.50;96124.00;;;;5088765;28;20211;-58
2021/05/07 11:38:53;;;;;;;2.27;2.07;;;10.20;99.90;9.50;96103.00;;;;5080087;28;20207;-55
2021/05/07 11:41:43;;;;;;;5.17;2.27;;;10.10;99.90;9.50;96104.00;;;;5088064;28;20235;-58
2021/05/07 11:44:31;;;;;;;2.47;2.07;;;10.10;99.90;9.30;96095.00;;;;5087036;28;20234;-56
2021/05/07 11:47:20;;;;;;;2.03;1.83;;;10.10;99.90;9.30;96095.00;;;;5095142;27;20217;-58
2021/05/07 11:50:09;;;;;;;3.60;3.00;;;10.00;99.90;9.40;96104.00;;;;5104648;27;20194;-57
2021/05/07 11:52:57;;;;;;;2.77;2.47;;;10.00;99.90;9.70;96093.00;;;;5107334;28;20534;-58
2021/05/07 11:55:45;;;;;;;3.00;2.70;;;10.10;99.90;10.20;96089.00;;;;5106064;28;20202;-58
2021/05/07 11:58:34;;;;;;;4.17;3.03;;;10.30;99.90;10.70;96089.00;;;;5107669;28;20202;-57
2021/05/07 12:01:25;;;;;;;2.40;2.00;;;10.60;99.90;10.70;96101.00;;;;5103721;28;20229;-58
2021/05/07 12:04:14;;;;;;;3.87;2.23;;;10.80;99.90;10.50;96093.00;;;;5101426;28;20592;-57
2021/05/07 12:07:02;;;;;;;2.37;1.87;;;10.90;99.90;10.10;96093.00;;;;5102526;28;20215;-56
2021/05/07 12:09:50;;;;;;;2.60;2.40;;;10.80;99.90;9.90;96107.00;;;;5101952;28;20230;-56
2021/05/07 12:12:42;;;;;;;3.87;2.30;;;10.70;99.90;9.90;96105.00;;;;5089365;28;20231;-57
2021/05/07 12:15:43;;;;;;;2.00;1.80;;;10.60;99.90;9.70;96105.00;;;;5099897;27;20678;-56
2021/05/07 12:18:34;;;;;;;4.70;1.97;;;10.50;99.90;9.70;96110.00;;;;5110598;27;20468;-56
2021/05/07 12:21:22;;;;;;;2.47;2.27;;;10.40;99.90;9.70;96119.00;;;;5098999;28;20235;-59
2021/05/07 12:24:13;;;;;;;5.13;2.43;;;10.40;99.90;9.70;96124.00;;;;5085955;28;20215;-55
2021/05/07 12:27:01;;;;;;;2.10;1.90;;;10.40;99.90;9.70;96125.00;;;;5080743;28;20235;-56
2021/05/07 12:29:49;;;;;;;2.87;2.37;;;10.40;99.90;9.80;96128.00;;;;5095490;28;20210;-57
2021/05/07 12:32:37;;;;;;;2.80;2.30;;;10.30;99.90;9.80;96139.00;;;;5104552;28;20701;-59
2021/05/07 12:35:40;;;;;;;4.40;2.50;;;10.30;99.90;9.60;96141.00;;;;5100996;28;20198;-56
2021/05/07 12:38:33;;;;;;;2.50;2.00;;;10.30;99.90;9.60;96134.00;;;;5102792;28;20699;-55
2021/05/07 12:41:24;;;;;;;2.37;2.07;;;10.20;99.90;9.70;96122.00;;;;5104182;28;20241;-58
2021/05/07 12:44:13;;;;;;;3.50;2.10;;;10.30;99.90;9.80;96145.00;;;;5105146;28;20273;-55
2021/05/07 12:47:01;;;;;;;2.07;1.57;;;10.30;99.90;9.70;96153.00;;;;5102246;28;20219;-55